createdAt,value
2023-04-13T00:00:35.550Z,99149.69
2023-04-13T00:03:04.346Z,99164.66
2023-04-13T00:05:31.452Z,99162.53
2023-04-13T00:08:03.480Z,99153.22
2023-04-13T00:10:36.818Z,99150.00
2023-04-13T00:13:05.311Z,99148.00
2023-04-13T00:15:34.754Z,99149.88
2023-04-13T00:18:01.703Z,99153.13
2023-04-13T00:20:29.001Z,99147.91
2023-04-13T00:22:56.177Z,99139.84
2023-04-13T00:25:22.833Z,99148.72
2023-04-13T00:27:50.360Z,99147.47
2023-04-13T00:30:18.024Z,99140.25
2023-04-13T00:32:45.497Z,99148.88
2023-04-13T00:35:15.672Z,99151.28
2023-04-13T00:37:47.155Z,99150.28
2023-04-13T00:40:16.557Z,99157.22
2023-04-13T00:42:46.764Z,99150.59
2023-04-13T00:45:13.743Z,99149.88
2023-04-13T00:47:43.459Z,99149.44
2023-04-13T00:50:10.264Z,99153.41
2023-04-13T00:52:40.164Z,99146.50
2023-04-13T00:55:07.797Z,99146.91
2023-04-13T00:57:35.220Z,99146.75
2023-04-13T01:00:07.876Z,99143.13
2023-04-13T01:02:34.477Z,99139.31
2023-04-13T01:05:03.157Z,99138.88
2023-04-13T01:07:47.246Z,99141.81
2023-04-13T01:10:43.541Z,99137.47
2023-04-13T01:13:20.687Z,99131.97
2023-04-13T01:16:04.278Z,99135.34
2023-04-13T01:18:33.337Z,99123.38
2023-04-13T01:21:00.203Z,99132.69
2023-04-13T01:23:56.725Z,99124.47
2023-04-13T01:26:23.961Z,99122.38
2023-04-13T01:28:51.400Z,99115.19
2023-04-13T01:31:18.047Z,99122.66
2023-04-13T01:33:46.863Z,99116.16
2023-04-13T01:36:14.494Z,99131.84
2023-04-13T01:38:41.141Z,99121.69
2023-04-13T01:41:08.699Z,99120.41
2023-04-13T01:43:35.830Z,99123.50
2023-04-13T01:46:10.174Z,99117.31
2023-04-13T01:48:48.409Z,99124.09
2023-04-13T01:51:24.507Z,99113.38
2023-04-13T01:54:12.898Z,99106.03
2023-04-13T01:56:40.096Z,99116.19
2023-04-13T01:59:06.662Z,99107.72
2023-04-13T02:01:33.197Z,99107.72
2023-04-13T02:04:00.673Z,99113.38
2023-04-13T02:06:27.521Z,99110.13
2023-04-13T02:08:54.429Z,99109.00
2023-04-13T02:11:22.073Z,99098.84
2023-04-13T02:13:48.610Z,99103.22
2023-04-13T02:16:15.821Z,99100.97
2023-04-13T02:18:42.414Z,99105.59
2023-04-13T02:21:09.669Z,99104.34
2023-04-13T02:23:37.102Z,99099.97
2023-04-13T02:26:06.809Z,99099.25
2023-04-13T02:28:33.408Z,99103.91
2023-04-13T02:31:00.185Z,99100.81
2023-04-13T02:33:31.645Z,99095.59
2023-04-13T02:35:58.986Z,99103.59
2023-04-13T02:38:26.658Z,99100.59
2023-04-13T02:40:57.255Z,99103.50
2023-04-13T02:43:23.788Z,99098.59
2023-04-13T02:45:50.292Z,99104.69
2023-04-13T02:48:16.861Z,99115.16
2023-04-13T02:50:43.300Z,99117.00
2023-04-13T02:53:09.785Z,99112.91
2023-04-13T02:55:36.629Z,99111.91
2023-04-13T02:58:04.584Z,99116.31
2023-04-13T03:00:32.697Z,99120.56
2023-04-13T03:02:59.454Z,99127.91
2023-04-13T03:05:26.731Z,99134.38
2023-04-13T03:07:53.232Z,99140.59
2023-04-13T03:10:19.848Z,99137.75
2023-04-13T03:12:46.318Z,99146.66
2023-04-13T03:15:13.090Z,99150.47
2023-04-13T03:17:41.501Z,99156.38
2023-04-13T03:20:16.929Z,99153.56
2023-04-13T03:22:45.381Z,99165.13
2023-04-13T03:25:12.546Z,99167.81
2023-04-13T03:27:39.149Z,99166.81
2023-04-13T03:30:06.406Z,99167.94
2023-04-13T03:32:32.899Z,99167.09
2023-04-13T03:34:59.425Z,99165.13
2023-04-13T03:37:30.212Z,99166.25
2023-04-13T03:39:57.927Z,99169.09
2023-04-13T03:42:24.404Z,99166.97
2023-04-13T03:44:51.166Z,99172.31
2023-04-13T03:47:17.816Z,99174.69
2023-04-13T03:49:44.295Z,99183.59
2023-04-13T03:52:10.772Z,99185.41
2023-04-13T03:54:37.295Z,99189.53
2023-04-13T03:57:04.877Z,99191.09
2023-04-13T03:59:31.568Z,99197.28
2023-04-13T04:01:58.455Z,99195.31
2023-04-13T04:04:25.361Z,99209.03
2023-04-13T04:06:52.101Z,99211.41
2023-04-13T04:09:18.637Z,99221.00
2023-04-13T04:11:45.719Z,99215.94
2023-04-13T04:14:12.203Z,99210.41
2023-04-13T04:16:38.762Z,99213.41
2023-04-13T04:19:05.282Z,99212.28
2023-04-13T04:21:36.078Z,99207.75
2023-04-13T04:24:06.354Z,99217.34
2023-04-13T04:26:33.298Z,99209.00
2023-04-13T04:29:05.039Z,99218.28
2023-04-13T04:31:36.675Z,99219.56
2023-04-13T04:34:05.112Z,99219.09
2023-04-13T04:36:31.614Z,99226.03
2023-04-13T04:39:03.182Z,99211.03
2023-04-13T04:41:31.321Z,99224.88
2023-04-13T04:44:03.561Z,99218.78
2023-04-13T04:46:30.132Z,99214.69
2023-04-13T04:49:00.853Z,99213.81
2023-04-13T04:51:28.187Z,99208.81
2023-04-13T04:53:54.843Z,99204.13
2023-04-13T04:56:21.756Z,99202.50
2023-04-13T04:58:48.610Z,99211.47
2023-04-13T05:01:15.260Z,99205.88
2023-04-13T05:03:42.218Z,99211.06
2023-04-13T05:06:09.424Z,99202.81
2023-04-13T05:08:36.020Z,99199.06
2023-04-13T05:11:05.969Z,99199.44
2023-04-13T05:13:32.687Z,99206.31
2023-04-13T05:15:59.355Z,99203.59
2023-04-13T05:18:26.156Z,99204.78
2023-04-13T05:20:52.935Z,99197.06
2023-04-13T05:23:19.588Z,99202.50
2023-04-13T05:25:46.237Z,99198.91
2023-04-13T05:28:13.146Z,99207.28
2023-04-13T05:30:39.724Z,99208.81
2023-04-13T05:33:06.674Z,99201.59
2023-04-13T05:35:33.708Z,99210.69
2023-04-13T05:38:00.786Z,99209.69
2023-04-13T05:40:28.987Z,99201.53
2023-04-13T05:42:56.393Z,99205.13
2023-04-13T05:45:23.026Z,99199.91
2023-04-13T05:47:50.322Z,99190.22
2023-04-13T05:50:17.212Z,99195.28
2023-04-13T05:52:43.663Z,99186.63
2023-04-13T05:55:11.753Z,99193.50
2023-04-13T05:57:38.412Z,99191.81
2023-04-13T06:00:08.038Z,99184.25
2023-04-13T06:02:37.151Z,99183.13
2023-04-13T06:05:05.131Z,99177.25
2023-04-13T06:07:31.795Z,99167.50
2023-04-13T06:10:00.767Z,99168.38
2023-04-13T06:12:27.805Z,99171.41
2023-04-13T06:14:54.499Z,99152.41
2023-04-13T06:17:21.286Z,99152.75
2023-04-13T06:19:48.507Z,99158.31
2023-04-13T06:22:14.980Z,99164.72
2023-04-13T06:24:41.835Z,99166.56
2023-04-13T06:27:08.583Z,99164.53
2023-04-13T06:29:35.972Z,99168.16
2023-04-13T06:32:03.353Z,99161.41
2023-04-13T06:34:30.743Z,99162.53
2023-04-13T06:36:57.630Z,99165.63
2023-04-13T06:39:25.545Z,99158.88
2023-04-13T06:41:54.053Z,99163.88
2023-04-13T06:44:20.864Z,99152.91
2023-04-13T06:46:47.746Z,99161.34
2023-04-13T06:49:14.545Z,99163.72
2023-04-13T06:51:41.032Z,99159.41
2023-04-13T06:54:07.648Z,99155.41
2023-04-13T06:56:34.319Z,99164.47
2023-04-13T06:59:03.432Z,99157.84
2023-04-13T07:01:30.524Z,99162.66
2023-04-13T07:03:57.478Z,99151.59
2023-04-13T07:06:24.342Z,99159.88
2023-04-13T07:08:50.988Z,99166.19
2023-04-13T07:11:17.696Z,99155.34
2023-04-13T07:13:44.343Z,99169.47
2023-04-13T07:16:12.441Z,99170.63
2023-04-13T07:18:39.041Z,99173.75
2023-04-13T07:21:06.149Z,99176.19
2023-04-13T07:23:33.794Z,99184.19
2023-04-13T07:26:01.483Z,99177.25
2023-04-13T07:28:28.400Z,99177.31
2023-04-13T07:30:55.110Z,99161.44
2023-04-13T07:33:21.841Z,99172.72
2023-04-13T07:35:50.414Z,99172.06
2023-04-13T07:38:17.150Z,99167.47
2023-04-13T07:40:44.003Z,99168.97
2023-04-13T07:43:11.060Z,99173.56
2023-04-13T07:45:37.761Z,99172.59
2023-04-13T07:48:05.931Z,99177.59
2023-04-13T07:50:32.952Z,99177.53
2023-04-13T07:52:59.666Z,99173.25
2023-04-13T07:55:26.940Z,99176.78
2023-04-13T07:57:53.542Z,99178.09
2023-04-13T08:00:23.046Z,99169.78
2023-04-13T08:02:50.413Z,99167.44
2023-04-13T08:05:17.930Z,99173.34
2023-04-13T08:07:46.996Z,99164.38
2023-04-13T08:10:13.551Z,99167.31
2023-04-13T08:12:40.154Z,99172.28
2023-04-13T08:15:07.688Z,99162.00
2023-04-13T08:17:36.032Z,99165.69
2023-04-13T08:20:06.169Z,99162.91
2023-04-13T08:22:33.073Z,99154.56
2023-04-13T08:24:59.763Z,99154.50
2023-04-13T08:27:26.452Z,99155.16
2023-04-13T08:29:56.995Z,99157.41
2023-04-13T08:32:23.743Z,99151.06
2023-04-13T08:34:50.538Z,99160.09
2023-04-13T08:37:17.405Z,99158.47
2023-04-13T08:39:44.037Z,99152.03
2023-04-13T08:42:10.695Z,99167.50
2023-04-13T08:44:40.238Z,99158.66
2023-04-13T08:47:07.519Z,99161.13
2023-04-13T08:49:34.798Z,99162.63
2023-04-13T08:52:05.563Z,99163.25
2023-04-13T08:54:33.070Z,99169.47
2023-04-13T08:56:59.746Z,99158.25
2023-04-13T08:59:28.433Z,99163.59
2023-04-13T09:01:56.157Z,99163.53
2023-04-13T09:04:25.408Z,99165.03
2023-04-13T09:06:52.818Z,99170.44
2023-04-13T09:09:20.708Z,99160.28
2023-04-13T09:11:49.932Z,99167.31
2023-04-13T09:14:22.221Z,99167.44
2023-04-13T09:16:50.076Z,99157.56
2023-04-13T09:19:17.952Z,99158.13
2023-04-13T09:21:45.466Z,99156.75
2023-04-13T09:24:12.904Z,99154.06
2023-04-13T09:26:43.857Z,99155.50
2023-04-13T09:29:14.287Z,99151.63
2023-04-13T09:31:43.546Z,99153.22
2023-04-13T09:34:12.139Z,99154.84
2023-04-13T09:36:49.584Z,99145.81
2023-04-13T09:39:28.566Z,99154.44
2023-04-13T09:41:56.105Z,99147.34
2023-04-13T09:44:34.681Z,99155.31
2023-04-13T09:47:05.876Z,99153.06
2023-04-13T09:49:42.736Z,99150.88
2023-04-13T09:52:23.711Z,99148.66
2023-04-13T09:54:59.888Z,99153.44
2023-04-13T09:57:30.883Z,99150.94
2023-04-13T10:00:01.509Z,99146.75
2023-04-13T10:02:28.658Z,99150.59
2023-04-13T10:04:56.167Z,99158.13
2023-04-13T10:07:26.925Z,99157.28
2023-04-13T10:09:54.135Z,99153.97
2023-04-13T10:12:21.074Z,99155.09
2023-04-13T10:14:48.907Z,99156.19
2023-04-13T10:17:42.681Z,99157.06
2023-04-13T10:20:13.792Z,99164.03
2023-04-13T10:22:43.434Z,99167.38
2023-04-13T10:25:25.690Z,99162.06
2023-04-13T10:28:00.160Z,99169.16
2023-04-13T10:30:27.791Z,99168.88
2023-04-13T10:33:06.412Z,99169.50
2023-04-13T10:35:37.365Z,99165.81
2023-04-13T10:38:05.106Z,99164.66
2023-04-13T10:40:52.260Z,99159.34
2023-04-13T10:43:29.233Z,99160.91
2023-04-13T10:46:09.569Z,99161.22
2023-04-13T10:48:36.592Z,99166.56
2023-04-13T10:51:04.509Z,99169.16
2023-04-13T10:53:32.874Z,99161.09
2023-04-13T10:56:00.289Z,99161.69
2023-04-13T10:58:29.955Z,99158.28
2023-04-13T11:00:58.739Z,99150.66
2023-04-13T11:03:29.036Z,99152.13
2023-04-13T11:05:58.237Z,99156.38
2023-04-13T11:08:25.281Z,99151.56
2023-04-13T11:10:53.039Z,99152.53
2023-04-13T11:13:19.895Z,99154.00
2023-04-13T11:15:47.331Z,99150.75
2023-04-13T11:18:13.880Z,99147.78
2023-04-13T11:20:41.873Z,99149.09
2023-04-13T11:23:19.023Z,99143.28
2023-04-13T11:25:59.974Z,99141.38
2023-04-13T11:28:40.146Z,99148.28
2023-04-13T11:31:07.653Z,99143.78
2023-04-13T11:33:37.222Z,99142.25
2023-04-13T11:36:06.515Z,99131.94
2023-04-13T11:38:33.191Z,99141.03
2023-04-13T11:41:15.900Z,99139.25
2023-04-13T11:43:46.748Z,99145.78
2023-04-13T11:46:16.201Z,99138.53
2023-04-13T11:48:43.478Z,99139.72
2023-04-13T11:51:11.568Z,99129.66
2023-04-13T11:53:39.455Z,99125.78
2023-04-13T11:56:07.066Z,99139.44
2023-04-13T11:58:33.818Z,99134.84
2023-04-13T12:01:12.784Z,99139.81
2023-04-13T12:03:56.743Z,99140.88
2023-04-13T12:06:29.075Z,99137.94
2023-04-13T12:09:10.086Z,99132.44
2023-04-13T12:11:42.739Z,99129.28
2023-04-13T12:14:49.755Z,99136.41
2023-04-13T12:19:46.730Z,99134.06
2023-04-13T12:22:14.949Z,99129.88
2023-04-13T12:24:42.924Z,99135.44
2023-04-13T12:27:18.254Z,99135.56
2023-04-13T12:29:46.045Z,99137.00
2023-04-13T12:32:19.732Z,99119.19
2023-04-13T12:34:47.437Z,99125.56
2023-04-13T12:37:14.058Z,99122.88
2023-04-13T12:39:42.460Z,99121.28
2023-04-13T12:42:10.004Z,99121.38
2023-04-13T12:44:36.991Z,99129.41
2023-04-13T12:47:06.733Z,99123.19
2023-04-13T12:49:33.764Z,99128.72
2023-04-13T12:52:00.983Z,99131.81
2023-04-13T12:54:28.791Z,99122.13
2023-04-13T12:56:57.093Z,99131.97
2023-04-13T12:59:24.230Z,99127.72
2023-04-13T13:01:51.352Z,99121.91
2023-04-13T13:04:17.984Z,99125.31
2023-04-13T13:06:44.621Z,99124.84
2023-04-13T13:09:11.324Z,99127.09
2023-04-13T13:11:37.972Z,99126.38
2023-04-13T13:14:05.072Z,99121.56
2023-04-13T13:16:32.673Z,99120.13
2023-04-13T13:18:59.583Z,99118.00
2023-04-13T13:21:26.589Z,99125.78
2023-04-13T13:23:53.435Z,99121.44
2023-04-13T13:26:24.546Z,99110.41
2023-04-13T13:28:54.043Z,99110.91
2023-04-13T13:31:20.896Z,99111.16
2023-04-13T13:33:47.568Z,99102.91
2023-04-13T13:36:15.079Z,99108.47
2023-04-13T13:38:43.186Z,99105.44
2023-04-13T13:41:09.995Z,99105.94
2023-04-13T13:43:37.831Z,99114.97
2023-04-13T13:46:08.593Z,99118.59
2023-04-13T13:48:35.466Z,99106.91
2023-04-13T13:51:04.464Z,99118.97
2023-04-13T13:53:32.428Z,99100.25
2023-04-13T13:55:59.122Z,99112.66
2023-04-13T13:58:25.683Z,99110.28
2023-04-13T14:00:52.326Z,99111.91
2023-04-13T14:03:19.091Z,99115.25
2023-04-13T14:05:46.068Z,99110.72
2023-04-13T14:08:13.172Z,99105.31
2023-04-13T14:10:40.204Z,99121.97
2023-04-13T14:13:07.326Z,99111.16
2023-04-13T14:15:33.900Z,99123.28
2023-04-13T14:18:09.198Z,99126.06
2023-04-13T14:20:39.184Z,99121.84
2023-04-13T14:23:06.476Z,99114.94
2023-04-13T14:25:33.089Z,99118.78
2023-04-13T14:28:00.005Z,99120.56
2023-04-13T14:30:28.119Z,99120.25
2023-04-13T14:32:55.583Z,99123.91
2023-04-13T14:35:22.551Z,99117.22
2023-04-13T14:37:49.599Z,99117.56
2023-04-13T14:40:17.067Z,99118.06
2023-04-13T14:42:44.444Z,99108.06
2023-04-13T14:45:12.407Z,99117.31
2023-04-13T14:47:40.127Z,99123.13
2023-04-13T14:50:08.592Z,99117.50
2023-04-13T14:52:35.592Z,99121.69
2023-04-13T14:55:03.651Z,99118.38
2023-04-13T14:57:31.179Z,99118.31
2023-04-13T14:59:57.928Z,99128.16
2023-04-13T15:02:27.440Z,99129.34
2023-04-13T15:04:54.737Z,99124.47
2023-04-13T15:07:21.962Z,99132.63
2023-04-13T15:09:49.014Z,99128.06
2023-04-13T15:12:15.759Z,99130.03
2023-04-13T15:14:46.610Z,99126.78
2023-04-13T15:17:13.493Z,99138.97
2023-04-13T15:19:40.284Z,99136.13
2023-04-13T15:22:07.291Z,99133.81
2023-04-13T15:24:33.882Z,99143.38
2023-04-13T15:27:00.791Z,99135.78
2023-04-13T15:29:27.778Z,99136.88
2023-04-13T15:31:54.640Z,99142.41
2023-04-13T15:34:21.342Z,99147.44
2023-04-13T15:36:48.110Z,99152.84
2023-04-13T15:39:14.821Z,99144.94
2023-04-13T15:41:41.423Z,99148.91
2023-04-13T15:44:08.238Z,99152.84
2023-04-13T15:46:35.021Z,99154.59
2023-04-13T15:49:02.069Z,99160.00
2023-04-13T15:51:29.482Z,99158.78
2023-04-13T15:53:56.190Z,99158.56
2023-04-13T15:56:23.124Z,99156.63
2023-04-13T15:58:50.045Z,99154.00
2023-04-13T16:01:16.722Z,99155.34
2023-04-13T16:03:43.787Z,99153.31
2023-04-13T16:06:10.939Z,99161.72
2023-04-13T16:08:37.898Z,99161.53
2023-04-13T16:11:04.909Z,99164.47
2023-04-13T16:13:47.060Z,99167.81
2023-04-13T16:16:15.907Z,99175.22
2023-04-13T16:18:42.430Z,99168.78
2023-04-13T16:21:10.935Z,99174.25
2023-04-13T16:23:37.775Z,99170.44
2023-04-13T16:26:05.067Z,99169.75
2023-04-13T16:28:31.706Z,99174.09
2023-04-13T16:30:59.149Z,99169.13
2023-04-13T16:33:26.135Z,99174.91
2023-04-13T16:35:52.709Z,99176.13
2023-04-13T16:38:19.279Z,99187.00
2023-04-13T16:40:45.878Z,99181.94
2023-04-13T16:43:12.895Z,99177.91
2023-04-13T16:45:39.716Z,99184.19
2023-04-13T16:48:06.570Z,99183.09
2023-04-13T16:50:33.319Z,99183.44
2023-04-13T16:53:00.091Z,99188.97
2023-04-13T16:55:28.610Z,99185.28
2023-04-13T16:57:56.258Z,99188.28
2023-04-13T17:00:23.338Z,99185.56
2023-04-13T17:02:50.152Z,99191.41
2023-04-13T17:05:16.969Z,99197.06
2023-04-13T17:07:44.715Z,99202.38
2023-04-13T17:10:12.906Z,99200.66
2023-04-13T17:12:40.571Z,99206.34
2023-04-13T17:15:08.001Z,99205.09
2023-04-13T17:17:34.778Z,99207.41
2023-04-13T17:20:01.879Z,99203.41
2023-04-13T17:22:28.668Z,99220.78
2023-04-13T17:24:55.678Z,99219.72
2023-04-13T17:27:22.380Z,99224.94
2023-04-13T17:29:50.049Z,99226.81
2023-04-13T17:32:16.791Z,99235.78
2023-04-13T17:34:44.748Z,99228.22
2023-04-13T17:37:11.893Z,99229.63
2023-04-13T17:39:42.209Z,99237.13
2023-04-13T17:42:09.552Z,99231.88
2023-04-13T17:44:36.545Z,99241.22
2023-04-13T17:47:04.817Z,99240.72
2023-04-13T17:49:31.374Z,99249.50
2023-04-13T17:51:59.921Z,99255.72
2023-04-13T17:54:27.506Z,99253.63
2023-04-13T17:56:54.798Z,99255.28
2023-04-13T17:59:22.138Z,99264.06
2023-04-13T18:01:51.594Z,99264.19
2023-04-13T18:04:19.234Z,99270.06
2023-04-13T18:06:45.980Z,99275.88
2023-04-13T18:09:15.921Z,99278.75
2023-04-13T18:11:42.597Z,99275.72
2023-04-13T18:14:12.453Z,99277.75
2023-04-13T18:16:39.331Z,99281.44
2023-04-13T18:19:06.266Z,99277.19
2023-04-13T18:21:33.303Z,99286.09
2023-04-13T18:24:03.693Z,99289.91
2023-04-13T18:26:30.589Z,99295.72
2023-04-13T18:28:57.180Z,99294.06
2023-04-13T18:31:24.023Z,99297.91
2023-04-13T18:33:50.665Z,99295.44
2023-04-13T18:36:18.448Z,99303.78
2023-04-13T18:38:46.025Z,99302.84
2023-04-13T18:41:13.017Z,99304.66
2023-04-13T18:43:39.949Z,99310.00
2023-04-13T18:46:07.976Z,99307.28
2023-04-13T18:48:35.308Z,99310.56
2023-04-13T18:51:04.010Z,99304.97
2023-04-13T18:53:31.039Z,99309.84
2023-04-13T18:55:58.401Z,99315.47
2023-04-13T18:58:25.541Z,99318.63
2023-04-13T19:00:52.119Z,99316.03
2023-04-13T19:03:18.938Z,99319.75
2023-04-13T19:05:46.134Z,99321.34
2023-04-13T19:08:13.505Z,99323.53
2023-04-13T19:10:42.557Z,99325.66
2023-04-13T19:13:09.500Z,99322.03
2023-04-13T19:15:36.441Z,99325.56
2023-04-13T19:18:04.777Z,99313.22
2023-04-13T19:20:31.593Z,99320.78
2023-04-13T19:22:58.402Z,99322.00
2023-04-13T19:25:25.061Z,99323.19
2023-04-13T19:27:51.656Z,99320.22
2023-04-13T19:30:21.450Z,99320.03
2023-04-13T19:32:49.223Z,99318.81
2023-04-13T19:35:16.440Z,99323.59
2023-04-13T19:37:43.222Z,99317.03
2023-04-13T19:40:10.273Z,99326.94
2023-04-13T19:42:37.118Z,99324.63
2023-04-13T19:45:04.599Z,99321.25
2023-04-13T19:47:31.637Z,99324.81
2023-04-13T19:49:58.182Z,99325.25
2023-04-13T19:52:25.300Z,99323.53
2023-04-13T19:54:52.094Z,99330.84
2023-04-13T19:57:18.847Z,99328.19
2023-04-13T19:59:45.840Z,99333.22
2023-04-13T20:02:12.576Z,99333.34
2023-04-13T20:04:40.102Z,99331.72
2023-04-13T20:07:07.135Z,99325.91
2023-04-13T20:09:33.911Z,99334.03
2023-04-13T20:12:00.881Z,99330.69
2023-04-13T20:14:27.438Z,99329.81
2023-04-13T20:16:54.082Z,99323.25
2023-04-13T20:19:21.215Z,99331.09
2023-04-13T20:21:47.886Z,99328.69
2023-04-13T20:24:14.608Z,99335.72
2023-04-13T20:26:42.129Z,99331.88
2023-04-13T20:29:08.675Z,99340.78
2023-04-13T20:31:35.861Z,99337.59
2023-04-13T20:34:04.412Z,99336.47
2023-04-13T20:36:31.317Z,99340.56
2023-04-13T20:38:59.450Z,99339.22
2023-04-13T20:41:27.155Z,99340.91
2023-04-13T20:43:53.660Z,99334.34
2023-04-13T20:46:21.741Z,99328.59
2023-04-13T20:48:51.540Z,99346.75
2023-04-13T20:51:19.280Z,99352.16
2023-04-13T20:53:46.004Z,99348.50
2023-04-13T20:56:12.881Z,99350.56
2023-04-13T20:58:40.785Z,99353.44
2023-04-13T21:01:07.644Z,99350.25
2023-04-13T21:03:34.931Z,99357.06
2023-04-13T21:06:01.552Z,99353.28
2023-04-13T21:08:28.210Z,99348.16
2023-04-13T21:10:55.071Z,99361.56
2023-04-13T21:13:22.149Z,99361.22
2023-04-13T21:15:48.662Z,99359.19
2023-04-13T21:18:15.394Z,99356.16
2023-04-13T21:20:43.391Z,99363.97
2023-04-13T21:23:10.308Z,99359.78
2023-04-13T21:25:37.334Z,99368.25
2023-04-13T21:28:04.840Z,99363.34
2023-04-13T21:30:31.394Z,99366.44
2023-04-13T21:32:57.990Z,99372.00
2023-04-13T21:35:24.537Z,99356.16
2023-04-13T21:37:51.178Z,99359.84
2023-04-13T21:40:18.373Z,99365.56
2023-04-13T21:42:45.060Z,99355.28
2023-04-13T21:45:11.757Z,99363.75
2023-04-13T21:47:38.474Z,99357.34
2023-04-13T21:50:06.198Z,99363.59
2023-04-13T21:52:33.013Z,99374.28
2023-04-13T21:54:59.917Z,99370.22
2023-04-13T21:57:26.891Z,99371.56
2023-04-13T21:59:54.794Z,99373.13
2023-04-13T22:02:21.476Z,99374.31
2023-04-13T22:04:48.084Z,99361.63
2023-04-13T22:07:14.816Z,99379.03
2023-04-13T22:09:41.685Z,99371.47
2023-04-13T22:12:10.739Z,99384.50
2023-04-13T22:14:37.257Z,99368.78
2023-04-13T22:17:04.288Z,99378.59
2023-04-13T22:19:31.352Z,99375.88
2023-04-13T22:21:57.885Z,99378.41
2023-04-13T22:24:24.433Z,99380.47
2023-04-13T22:26:51.696Z,99381.63
2023-04-13T22:29:18.212Z,99380.63
2023-04-13T22:31:44.867Z,99384.19
2023-04-13T22:34:11.461Z,99381.50
2023-04-13T22:36:38.000Z,99381.97
2023-04-13T22:39:04.512Z,99377.59
2023-04-13T22:41:31.018Z,99380.97
2023-04-13T22:43:57.536Z,99384.19
2023-04-13T22:46:24.196Z,99384.31
2023-04-13T22:48:51.309Z,99376.72
2023-04-13T22:51:17.833Z,99379.78
2023-04-13T22:53:44.313Z,99381.09
2023-04-13T22:56:10.875Z,99380.97
2023-04-13T22:58:37.434Z,99384.38
2023-04-13T23:01:04.713Z,99383.50
2023-04-13T23:03:31.488Z,99379.78
2023-04-13T23:05:58.152Z,99377.78
2023-04-13T23:08:24.624Z,99379.09
2023-04-13T23:10:51.202Z,99377.94
2023-04-13T23:13:17.706Z,99376.25
2023-04-13T23:15:44.289Z,99375.06
2023-04-13T23:18:11.065Z,99371.19
2023-04-13T23:20:37.647Z,99373.22
2023-04-13T23:23:04.348Z,99377.09
2023-04-13T23:25:30.917Z,99375.75
2023-04-13T23:27:57.468Z,99376.44
2023-04-13T23:30:24.000Z,99384.88
2023-04-13T23:32:51.019Z,99377.44
2023-04-13T23:35:17.648Z,99377.44
2023-04-13T23:37:45.354Z,99377.94
2023-04-13T23:40:12.281Z,99372.03
2023-04-13T23:42:38.857Z,99372.72
2023-04-13T23:45:05.961Z,99373.88
2023-04-13T23:47:32.493Z,99366.97
2023-04-13T23:49:59.170Z,99367.13
2023-04-13T23:52:25.657Z,99376.59
2023-04-13T23:54:52.119Z,99382.34
2023-04-13T23:57:18.596Z,99384.34
2023-04-13T23:59:45.105Z,99393.66
